createdAt,value
2022-12-12T00:02:03.697Z,59.40
2022-12-12T00:04:34.022Z,59.50
2022-12-12T00:07:04.184Z,59.50
2022-12-12T00:09:34.416Z,59.50
2022-12-12T00:12:04.655Z,59.60
2022-12-12T00:14:35.537Z,59.50
2022-12-12T00:17:05.806Z,59.60
2022-12-12T00:19:36.180Z,59.60
2022-12-12T00:22:06.573Z,59.60
2022-12-12T00:24:36.769Z,59.90
2022-12-12T00:27:07.032Z,59.60
2022-12-12T00:29:37.308Z,59.80
2022-12-12T00:32:07.880Z,59.80
2022-12-12T00:34:38.119Z,59.70
2022-12-12T00:37:08.375Z,59.70
2022-12-12T00:39:38.671Z,59.80
2022-12-12T00:42:09.000Z,59.80
2022-12-12T00:44:39.291Z,59.80
2022-12-12T00:47:09.667Z,60.00
2022-12-12T00:49:39.922Z,59.90
2022-12-12T00:52:10.163Z,60.00
2022-12-12T00:54:40.374Z,59.90
2022-12-12T00:57:10.705Z,60.40
2022-12-12T00:59:40.976Z,59.90
2022-12-12T01:02:11.581Z,60.00
2022-12-12T01:04:42.205Z,60.00
2022-12-12T01:07:12.434Z,60.10
2022-12-12T01:09:42.696Z,60.10
2022-12-12T01:12:12.940Z,60.00
2022-12-12T01:14:43.272Z,60.20
2022-12-12T01:17:13.614Z,60.10
2022-12-12T01:19:44.078Z,60.00
2022-12-12T01:22:14.282Z,60.00
2022-12-12T01:24:44.514Z,59.90
2022-12-12T01:27:14.693Z,59.80
2022-12-12T01:29:44.954Z,59.90
2022-12-12T01:32:15.171Z,59.80
2022-12-12T01:34:45.340Z,59.80
2022-12-12T01:37:15.613Z,59.80
2022-12-12T01:39:45.832Z,59.80
2022-12-12T01:42:18.423Z,59.80
2022-12-12T01:44:54.440Z,59.80
2022-12-12T01:47:26.153Z,59.70
2022-12-12T01:50:08.015Z,59.80
2022-12-12T01:52:45.573Z,59.80
2022-12-12T01:55:23.423Z,59.80
2022-12-12T01:57:57.167Z,59.60
2022-12-12T02:00:27.378Z,59.60
2022-12-12T02:02:58.750Z,59.60
2022-12-12T02:05:43.874Z,59.60
2022-12-12T02:08:26.085Z,59.50
2022-12-12T02:10:56.410Z,59.60
2022-12-12T02:13:31.221Z,59.50
2022-12-12T02:16:35.105Z,59.50
2022-12-12T02:19:31.183Z,59.50
2022-12-12T02:22:21.362Z,59.50
2022-12-12T02:25:22.617Z,59.50
2022-12-12T02:28:12.576Z,59.50
2022-12-12T02:31:07.386Z,59.50
2022-12-12T02:34:00.436Z,59.40
2022-12-12T02:37:03.731Z,59.40
2022-12-12T02:39:48.845Z,59.40
2022-12-12T02:42:25.449Z,59.50
2022-12-12T02:44:58.572Z,59.40
2022-12-12T02:47:34.802Z,59.30
2022-12-12T02:50:26.871Z,59.20
2022-12-12T02:52:57.236Z,59.80
2022-12-12T02:55:27.544Z,59.20
2022-12-12T02:57:58.198Z,59.10
2022-12-12T03:00:31.198Z,59.00
2022-12-12T03:03:37.606Z,59.00
2022-12-12T03:07:10.229Z,59.60
2022-12-12T03:10:04.853Z,58.90
2022-12-12T03:12:56.083Z,59.00
2022-12-12T03:15:33.640Z,59.00
2022-12-12T03:18:24.959Z,59.00
2022-12-12T03:21:04.847Z,58.90
2022-12-12T03:23:49.922Z,58.90
2022-12-12T03:26:45.046Z,58.80
2022-12-12T03:29:38.238Z,59.00
2022-12-12T03:32:21.392Z,58.80
2022-12-12T03:35:02.527Z,58.90
2022-12-12T03:37:37.684Z,58.90
2022-12-12T03:40:17.763Z,58.90
2022-12-12T03:43:27.255Z,58.70
2022-12-12T03:46:04.916Z,58.60
2022-12-12T03:48:43.271Z,58.70
2022-12-12T03:51:34.833Z,58.70
2022-12-12T03:54:14.896Z,58.60
2022-12-12T03:57:08.270Z,58.60
2022-12-12T03:59:54.999Z,58.50
2022-12-12T04:02:37.151Z,58.40
2022-12-12T04:05:37.994Z,58.40
2022-12-12T04:08:15.697Z,58.20
2022-12-12T04:11:09.573Z,58.30
2022-12-12T04:13:39.814Z,58.40
2022-12-12T04:16:20.698Z,58.30
2022-12-12T04:19:39.548Z,58.20
2022-12-12T04:22:32.007Z,58.10
2022-12-12T04:25:08.670Z,58.10
2022-12-12T04:27:49.036Z,58.10
2022-12-12T04:30:19.383Z,57.90
2022-12-12T04:33:13.619Z,57.80
2022-12-12T04:35:52.205Z,57.70
2022-12-12T04:38:31.514Z,57.80
2022-12-12T04:41:03.247Z,57.80
2022-12-12T04:43:39.923Z,57.80
2022-12-12T04:46:24.034Z,57.70
2022-12-12T04:48:58.535Z,57.60
2022-12-12T04:51:35.842Z,57.60
2022-12-12T04:54:53.392Z,57.50
2022-12-12T04:57:29.949Z,57.20
2022-12-12T05:00:00.447Z,57.50
2022-12-12T05:02:42.895Z,57.50
2022-12-12T05:05:29.523Z,57.40
2022-12-12T05:08:12.509Z,57.30
2022-12-12T05:10:48.542Z,57.30
2022-12-12T05:13:24.879Z,57.20
2022-12-12T05:15:57.585Z,57.10
2022-12-12T05:18:28.302Z,57.10
2022-12-12T05:20:58.516Z,56.90
2022-12-12T05:23:34.323Z,56.90
2022-12-12T05:26:27.334Z,56.80
2022-12-12T05:29:01.138Z,56.60
2022-12-12T05:31:35.725Z,56.70
2022-12-12T05:34:07.017Z,56.70
2022-12-12T05:36:37.348Z,56.70
2022-12-12T05:39:07.588Z,56.80
2022-12-12T05:41:37.993Z,56.80
2022-12-12T05:44:08.329Z,56.70
2022-12-12T05:46:39.017Z,56.70
2022-12-12T05:49:09.284Z,56.70
2022-12-12T05:51:39.587Z,56.60
2022-12-12T05:54:09.874Z,56.50
2022-12-12T05:56:40.216Z,56.40
2022-12-12T05:59:10.479Z,56.30
2022-12-12T06:01:40.758Z,56.20
2022-12-12T06:04:11.086Z,56.30
2022-12-12T06:06:41.566Z,56.30
2022-12-12T06:09:11.775Z,56.30
2022-12-12T06:11:42.190Z,56.20
2022-12-12T06:14:12.628Z,56.30
2022-12-12T06:16:42.944Z,56.10
2022-12-12T06:19:13.396Z,56.20
2022-12-12T06:21:43.812Z,56.30
2022-12-12T06:24:14.114Z,56.30
2022-12-12T06:26:44.479Z,56.30
2022-12-12T06:29:16.429Z,56.30
2022-12-12T06:31:46.706Z,56.20
2022-12-12T06:34:17.036Z,56.30
2022-12-12T06:36:47.422Z,56.40
2022-12-12T06:39:17.640Z,56.40
2022-12-12T06:41:47.939Z,56.50
2022-12-12T06:44:18.284Z,56.30
2022-12-12T06:46:48.812Z,56.30
2022-12-12T06:49:19.001Z,56.20
2022-12-12T06:51:50.655Z,56.30
2022-12-12T06:54:21.579Z,56.30
2022-12-12T06:56:52.552Z,56.40
2022-12-12T06:59:22.926Z,56.40
2022-12-12T07:01:53.324Z,56.40
2022-12-12T07:04:23.573Z,56.50
2022-12-12T07:06:54.066Z,56.40
2022-12-12T07:09:24.353Z,57.00
2022-12-12T07:11:54.692Z,56.30
2022-12-12T07:14:24.957Z,56.20
2022-12-12T07:16:55.330Z,56.40
2022-12-12T07:19:25.639Z,56.40
2022-12-12T07:21:55.915Z,56.40
2022-12-12T07:24:26.156Z,56.30
2022-12-12T07:26:56.657Z,56.50
2022-12-12T07:29:27.210Z,56.40
2022-12-12T07:31:57.948Z,56.40
2022-12-12T07:34:30.863Z,56.40
2022-12-12T07:37:03.280Z,56.40
2022-12-12T07:39:38.810Z,56.50
2022-12-12T07:42:09.190Z,56.50
2022-12-12T07:44:39.501Z,56.60
2022-12-12T07:47:10.110Z,56.70
2022-12-12T07:49:40.821Z,56.70
2022-12-12T07:52:11.095Z,56.70
2022-12-12T07:54:41.439Z,56.80
2022-12-12T07:57:12.054Z,56.90
2022-12-12T07:59:42.385Z,57.00
2022-12-12T08:02:13.580Z,57.00
2022-12-12T08:04:43.888Z,57.00
2022-12-12T08:07:14.216Z,57.10
2022-12-12T08:09:44.488Z,57.20
2022-12-12T08:12:14.792Z,57.10
2022-12-12T08:14:45.100Z,57.20
2022-12-12T08:17:16.051Z,57.20
2022-12-12T08:19:46.308Z,57.20
2022-12-12T08:22:16.854Z,57.40
2022-12-12T08:24:47.028Z,57.30
2022-12-12T08:27:17.440Z,57.40
2022-12-12T08:29:47.744Z,57.40
2022-12-12T08:32:18.074Z,57.50
2022-12-12T08:34:49.595Z,58.20
2022-12-12T08:37:19.986Z,57.60
2022-12-12T08:39:54.192Z,57.60
2022-12-12T08:42:26.189Z,57.60
2022-12-12T08:44:56.365Z,57.70
2022-12-12T08:47:26.834Z,57.80
2022-12-12T08:49:57.688Z,57.80
2022-12-12T08:52:27.953Z,57.90
2022-12-12T08:54:58.123Z,57.90
2022-12-12T08:57:28.741Z,57.90
2022-12-12T08:59:59.143Z,57.90
2022-12-12T09:02:29.468Z,58.00
2022-12-12T09:04:59.678Z,58.00
2022-12-12T09:07:29.860Z,58.00
2022-12-12T09:10:00.052Z,58.00
2022-12-12T09:12:30.722Z,58.00
2022-12-12T09:15:00.906Z,58.00
2022-12-12T09:17:31.191Z,58.10
2022-12-12T09:20:01.479Z,58.00
2022-12-12T09:22:35.250Z,58.00
2022-12-12T09:25:06.370Z,58.10
2022-12-12T09:27:36.801Z,58.10
2022-12-12T09:30:07.336Z,58.10
2022-12-12T09:32:37.843Z,58.10
2022-12-12T09:35:08.590Z,58.00
2022-12-12T09:37:39.160Z,58.00
2022-12-12T09:40:10.026Z,58.00
2022-12-12T09:42:49.123Z,57.90
2022-12-12T09:45:20.617Z,57.90
2022-12-12T09:47:57.963Z,57.90
2022-12-12T09:50:50.343Z,57.80
2022-12-12T09:53:24.000Z,57.70
2022-12-12T09:55:58.658Z,57.80
2022-12-12T09:59:05.336Z,57.80
2022-12-12T10:01:57.995Z,57.70
2022-12-12T10:04:55.290Z,57.70
2022-12-12T10:07:57.028Z,57.70
2022-12-12T10:10:55.061Z,57.70
2022-12-12T10:13:29.279Z,57.70
2022-12-12T10:16:10.514Z,57.80
2022-12-12T10:18:52.518Z,57.70
2022-12-12T10:21:31.827Z,58.30
2022-12-12T10:24:27.723Z,57.70
2022-12-12T10:26:59.673Z,57.60
2022-12-12T10:29:30.224Z,57.70
2022-12-12T10:32:18.954Z,57.70
2022-12-12T10:35:26.893Z,57.80
2022-12-12T10:38:29.838Z,57.70
2022-12-12T10:41:09.201Z,57.70
2022-12-12T10:44:00.864Z,57.80
2022-12-12T10:46:50.621Z,57.80
2022-12-12T10:49:25.443Z,57.80
2022-12-12T10:51:57.975Z,57.80
2022-12-12T10:54:30.477Z,57.70
2022-12-12T10:57:22.878Z,57.70
2022-12-12T11:00:00.385Z,57.70
2022-12-12T11:02:41.395Z,58.50
2022-12-12T11:05:26.085Z,57.80
2022-12-12T11:08:25.634Z,57.80
2022-12-12T11:11:23.558Z,57.80
2022-12-12T11:14:06.082Z,57.80
2022-12-12T11:16:47.361Z,57.90
2022-12-12T11:19:23.135Z,57.80
2022-12-12T11:21:57.526Z,57.80
2022-12-12T11:24:34.316Z,57.80
2022-12-12T11:27:08.007Z,57.80
2022-12-12T11:29:49.032Z,57.80
2022-12-12T11:32:26.396Z,57.80
2022-12-12T11:35:00.439Z,57.90
2022-12-12T11:37:41.947Z,57.90
2022-12-12T11:40:27.729Z,57.90
2022-12-12T11:43:21.275Z,58.20
2022-12-12T11:46:05.723Z,58.20
2022-12-12T11:48:40.989Z,58.30
2022-12-12T11:51:11.967Z,58.30
2022-12-12T11:53:47.906Z,58.40
2022-12-12T11:56:56.132Z,58.40
2022-12-12T12:00:02.973Z,58.40
2022-12-12T12:02:51.397Z,58.50
2022-12-12T12:05:27.676Z,58.60
2022-12-12T12:08:27.364Z,58.70
2022-12-12T12:11:03.834Z,58.60
2022-12-12T12:13:46.850Z,58.70
2022-12-12T12:16:42.743Z,58.70
2022-12-12T12:19:22.020Z,58.70
2022-12-12T12:22:02.863Z,58.70
2022-12-12T12:24:38.553Z,58.80
2022-12-12T12:27:42.159Z,58.80
2022-12-12T12:30:53.632Z,58.70
2022-12-12T12:33:38.991Z,58.70
2022-12-12T12:36:21.520Z,58.80
2022-12-12T12:39:01.684Z,58.80
2022-12-12T12:42:08.553Z,58.80
2022-12-12T12:45:08.372Z,58.70
2022-12-12T12:48:18.048Z,58.70
2022-12-12T12:51:13.935Z,58.70
2022-12-12T12:53:53.509Z,58.70
2022-12-12T12:56:28.831Z,58.80
2022-12-12T12:59:05.713Z,58.80
2022-12-12T13:01:57.264Z,58.80
2022-12-12T13:04:37.295Z,58.70
2022-12-12T13:07:40.988Z,58.80
2022-12-12T13:10:32.026Z,58.80
2022-12-12T13:13:15.171Z,58.80
2022-12-12T13:15:56.117Z,58.80
2022-12-12T13:18:33.317Z,58.80
2022-12-12T13:21:32.993Z,58.90
2022-12-12T13:24:11.500Z,58.90
2022-12-12T13:27:03.026Z,58.90
2022-12-12T13:29:51.990Z,58.80
2022-12-12T13:32:37.294Z,58.90
2022-12-12T13:35:14.843Z,58.90
2022-12-12T13:37:52.149Z,58.90
2022-12-12T13:40:41.453Z,58.90
2022-12-12T13:43:36.404Z,58.90
2022-12-12T13:46:30.185Z,58.90
2022-12-12T13:49:00.351Z,58.90
2022-12-12T13:51:32.021Z,59.00
2022-12-12T13:54:13.864Z,59.00
2022-12-12T13:56:47.943Z,58.90
2022-12-12T13:59:29.718Z,59.00
2022-12-12T14:02:34.034Z,58.90
2022-12-12T14:05:24.744Z,58.90
2022-12-12T14:08:09.033Z,59.60
2022-12-12T14:10:49.396Z,59.00
2022-12-12T14:13:28.767Z,59.10
2022-12-12T14:16:02.088Z,59.10
2022-12-12T14:18:43.397Z,59.10
2022-12-12T14:21:16.288Z,59.10
2022-12-12T14:23:49.472Z,59.10
2022-12-12T14:26:31.912Z,59.10
2022-12-12T14:29:20.529Z,59.00
2022-12-12T14:32:10.057Z,59.00
2022-12-12T14:34:52.819Z,59.10
2022-12-12T14:37:23.247Z,59.20
2022-12-12T14:40:02.446Z,59.20
2022-12-12T14:43:20.700Z,59.10
2022-12-12T14:45:56.938Z,59.10
2022-12-12T14:48:32.338Z,59.10
2022-12-12T14:51:07.922Z,59.10
2022-12-12T14:53:41.229Z,59.10
2022-12-12T14:56:19.780Z,59.10
2022-12-12T14:59:07.417Z,59.10
2022-12-12T15:01:39.327Z,59.10
2022-12-12T15:04:22.284Z,59.10
2022-12-12T15:07:00.102Z,59.10
2022-12-12T15:09:37.828Z,59.10
2022-12-12T15:12:14.437Z,59.10
2022-12-12T15:15:06.746Z,59.00
2022-12-12T15:17:50.532Z,59.00
2022-12-12T15:20:27.838Z,59.10
2022-12-12T15:23:08.771Z,59.10
2022-12-12T15:25:48.954Z,59.10
2022-12-12T15:28:22.580Z,59.10
2022-12-12T15:30:55.271Z,59.10
2022-12-12T15:33:30.038Z,59.10
2022-12-12T15:36:03.739Z,59.10
2022-12-12T15:38:35.519Z,59.00
2022-12-12T15:41:13.276Z,59.10
2022-12-12T15:43:46.194Z,59.10
2022-12-12T15:46:17.851Z,59.00
2022-12-12T15:48:51.183Z,59.00
2022-12-12T15:51:25.203Z,59.00
2022-12-12T15:53:59.585Z,59.00
2022-12-12T15:56:32.688Z,59.10
2022-12-12T15:59:11.630Z,59.00
2022-12-12T16:01:42.192Z,59.00
2022-12-12T16:04:13.010Z,59.00
2022-12-12T16:06:46.992Z,59.00
2022-12-12T16:09:25.824Z,59.00
2022-12-12T16:11:56.982Z,59.00
2022-12-12T16:14:43.645Z,59.10
2022-12-12T16:17:19.693Z,59.00
2022-12-12T16:20:01.859Z,59.10
2022-12-12T16:22:37.731Z,59.10
2022-12-12T16:25:27.888Z,59.10
2022-12-12T16:28:03.623Z,59.00
2022-12-12T16:30:34.405Z,59.10
2022-12-12T16:33:28.787Z,59.10
2022-12-12T16:36:02.466Z,59.00
2022-12-12T16:38:34.754Z,59.20
2022-12-12T16:41:11.229Z,59.20
2022-12-12T16:43:42.167Z,59.10
2022-12-12T16:46:20.806Z,59.10
2022-12-12T16:48:52.036Z,59.10
2022-12-12T16:51:32.753Z,59.10
2022-12-12T16:54:03.517Z,59.10
2022-12-12T16:56:34.065Z,59.20
2022-12-12T16:59:04.872Z,59.10
2022-12-12T17:01:38.717Z,59.10
2022-12-12T17:04:17.520Z,59.20
2022-12-12T17:06:47.970Z,59.10
2022-12-12T17:09:18.569Z,59.20
2022-12-12T17:11:49.300Z,59.20
2022-12-12T17:14:26.344Z,59.20
2022-12-12T17:16:57.883Z,59.20
2022-12-12T17:19:28.131Z,59.20
2022-12-12T17:21:58.530Z,59.10
2022-12-12T17:24:28.736Z,59.10
2022-12-12T17:26:59.161Z,59.10
2022-12-12T17:29:29.414Z,59.20
2022-12-12T17:31:59.798Z,59.10
2022-12-12T17:34:30.056Z,59.20
2022-12-12T17:37:00.439Z,59.20
2022-12-12T17:39:30.622Z,59.20
2022-12-12T17:42:01.050Z,59.20
2022-12-12T17:44:31.333Z,59.20
2022-12-12T17:47:01.720Z,59.20
2022-12-12T17:49:31.911Z,59.20
2022-12-12T17:52:02.203Z,59.20
2022-12-12T17:54:32.394Z,59.20
2022-12-12T17:57:02.833Z,59.30
2022-12-12T17:59:33.001Z,59.30
2022-12-12T18:02:03.250Z,59.30
2022-12-12T18:04:40.555Z,59.20
2022-12-12T18:07:12.173Z,59.20
2022-12-12T18:09:42.468Z,59.20
2022-12-12T18:12:12.858Z,59.20
2022-12-12T18:14:43.126Z,59.30
2022-12-12T18:17:13.560Z,59.30
2022-12-12T18:19:43.836Z,59.30
2022-12-12T18:22:14.144Z,59.30
2022-12-12T18:24:44.421Z,59.30
2022-12-12T18:27:15.297Z,59.30
2022-12-12T18:29:45.581Z,59.30
2022-12-12T18:32:15.933Z,59.30
2022-12-12T18:34:46.194Z,59.30
2022-12-12T18:37:17.285Z,59.30
2022-12-12T18:39:47.550Z,59.30
2022-12-12T18:42:18.071Z,59.30
2022-12-12T18:44:48.201Z,59.30
2022-12-12T18:47:18.636Z,59.30
2022-12-12T18:49:48.856Z,59.30
2022-12-12T18:52:19.293Z,59.30
2022-12-12T18:54:49.499Z,59.30
2022-12-12T18:57:20.200Z,59.30
2022-12-12T18:59:50.411Z,59.30
2022-12-12T19:02:20.693Z,59.30
2022-12-12T19:04:51.928Z,59.30
2022-12-12T19:07:23.388Z,59.30
2022-12-12T19:09:53.748Z,59.30
2022-12-12T19:12:24.210Z,59.40
2022-12-12T19:17:45.025Z,59.40
2022-12-12T19:20:15.487Z,59.40
2022-12-12T19:22:47.065Z,59.40
2022-12-12T19:25:19.426Z,59.40
2022-12-12T19:27:49.855Z,60.00
2022-12-12T19:30:20.136Z,59.50
2022-12-12T19:32:50.736Z,59.40
2022-12-12T19:35:21.032Z,59.40
2022-12-12T19:37:51.587Z,59.40
2022-12-12T19:40:21.873Z,59.40
2022-12-12T19:42:52.197Z,59.40
2022-12-12T19:45:22.495Z,59.40
2022-12-12T19:47:52.807Z,59.40
2022-12-12T19:50:23.042Z,59.40
2022-12-12T19:52:53.371Z,59.40
2022-12-12T19:55:24.589Z,59.50
2022-12-12T19:57:54.892Z,59.40
2022-12-12T20:00:25.203Z,59.40
2022-12-12T20:02:55.614Z,59.40
2022-12-12T20:05:25.881Z,59.50
2022-12-12T20:07:56.171Z,59.50
2022-12-12T20:10:26.393Z,59.50
2022-12-12T20:12:58.833Z,59.50
2022-12-12T20:15:29.318Z,59.40
2022-12-12T20:18:02.268Z,59.50
2022-12-12T20:20:32.433Z,59.50
2022-12-12T20:23:02.759Z,59.50
2022-12-12T20:25:32.931Z,59.50
2022-12-12T20:28:03.421Z,59.50
2022-12-12T20:30:33.680Z,59.60
2022-12-12T20:33:04.204Z,59.50
2022-12-12T20:35:37.240Z,59.60
2022-12-12T20:38:08.271Z,59.60
2022-12-12T20:40:41.468Z,59.60
2022-12-12T20:43:11.666Z,59.60
2022-12-12T20:45:41.895Z,59.60
2022-12-12T20:48:12.190Z,59.60
2022-12-12T20:50:43.312Z,59.60
2022-12-12T20:53:13.740Z,59.60
2022-12-12T20:55:44.021Z,59.60
2022-12-12T20:58:14.263Z,59.80
2022-12-12T21:00:44.447Z,59.90
2022-12-12T21:03:14.676Z,59.90
2022-12-12T21:05:44.922Z,59.90
2022-12-12T21:08:15.485Z,60.00
2022-12-12T21:10:45.777Z,60.10
2022-12-12T21:13:16.116Z,60.10
2022-12-12T21:15:47.054Z,60.10
2022-12-12T21:18:17.478Z,60.10
2022-12-12T21:20:48.090Z,60.20
2022-12-12T21:23:22.509Z,60.10
2022-12-12T21:25:52.740Z,60.20
2022-12-12T21:28:22.944Z,60.20
2022-12-12T21:30:53.343Z,60.60
2022-12-12T21:33:23.619Z,60.70
2022-12-12T21:35:54.447Z,60.60
2022-12-12T21:38:30.743Z,60.50
2022-12-12T21:41:05.369Z,60.50
2022-12-12T21:43:37.032Z,60.50
2022-12-12T21:46:16.166Z,60.40
2022-12-12T21:48:46.464Z,60.60
2022-12-12T21:51:18.737Z,60.70
2022-12-12T21:53:49.054Z,60.80
2022-12-12T21:56:20.355Z,60.90
2022-12-12T21:58:50.851Z,61.70
2022-12-12T22:01:22.905Z,61.80
2022-12-12T22:03:53.867Z,61.70
2022-12-12T22:06:30.226Z,62.70
2022-12-12T22:09:01.797Z,62.80
2022-12-12T22:11:47.533Z,62.40
2022-12-12T22:14:23.667Z,62.30
2022-12-12T22:16:54.276Z,62.10
2022-12-12T22:19:24.493Z,62.10
2022-12-12T22:21:54.710Z,61.80
2022-12-12T22:24:24.959Z,61.50
2022-12-12T22:26:55.583Z,61.40
2022-12-12T22:29:25.969Z,61.30
2022-12-12T22:31:56.278Z,61.20
2022-12-12T22:34:27.554Z,61.20
2022-12-12T22:36:57.804Z,61.00
2022-12-12T22:39:30.297Z,61.00
2022-12-12T22:42:00.709Z,60.80
2022-12-12T22:44:31.095Z,60.70
2022-12-12T22:47:01.582Z,60.60
2022-12-12T22:49:31.799Z,60.40
2022-12-12T22:52:01.959Z,60.50
2022-12-12T22:54:32.182Z,60.20
2022-12-12T22:57:02.670Z,60.20
2022-12-12T22:59:32.875Z,60.20
2022-12-12T23:02:03.209Z,60.00
2022-12-12T23:04:33.454Z,59.90
2022-12-12T23:07:03.881Z,60.10
2022-12-12T23:09:35.131Z,60.00
2022-12-12T23:12:05.527Z,59.80
2022-12-12T23:14:35.846Z,60.00
2022-12-12T23:17:06.370Z,59.70
2022-12-12T23:19:36.709Z,59.90
2022-12-12T23:22:07.219Z,59.70
2022-12-12T23:24:37.639Z,59.60
2022-12-12T23:27:08.009Z,59.80
2022-12-12T23:29:38.349Z,59.40
2022-12-12T23:32:08.834Z,59.50
2022-12-12T23:34:39.645Z,59.30
2022-12-12T23:37:11.116Z,59.30
2022-12-12T23:39:41.392Z,59.80
2022-12-12T23:42:12.760Z,59.70
2022-12-12T23:44:43.050Z,59.90
2022-12-12T23:47:13.273Z,59.70
2022-12-12T23:49:43.591Z,59.90
2022-12-12T23:52:13.912Z,59.90
2022-12-12T23:54:44.143Z,59.80
2022-12-12T23:57:14.373Z,59.60
2022-12-12T23:59:45.575Z,59.60
